Skip Navigation LinksHome page > Weather > Current weather Skip Navigation Links

Current Weather

Miami Intl, Miami

For information only: do not use for flight planning or navigation.
Latest weather
Observation time Friday, January 21, 2022 1:57 PM EST
Local time Friday, January 21, 2022 2:49 PM EST
Flight conditions Visual Meteorological Conditions
Winds
Wind direction East-Southeast (110°)
Wind speed 8 mph
Visibility 10 mi.
Sky condition
Ceiling 3,400 ft. broken clouds
Cloud layer scattered clouds 2,800 ft.
Cloud layer broken clouds 3,400 ft.
Cloud layer broken clouds 15,000 ft.
Temperature 80°F
Dewpoint 70°F
Altimeter 30.02 in.Hg
Derived measurements
Relative humidity 71%
Heat index 83°F
Density altitude 1583 ft.
Remarks
Automated weather observing station with precipitation discriminator.
METAR KMIA 211857Z 11007KT 10SM SCT028 BKN034 BKN150 27/21 A3002 RMK AO2 T02670211

Settings

Location code

InnerDrive.Weather 4.0.6770.0 Release CLR 4.0.30319.42000
Copyright ©2018 Inner Drive Technology. All rights reserved. Portions Copyright ©1986-2018 David Braverman.

Find weather

Site navigation


Skip Navigation Links

Place info

Page info

PayPal - The safer, easier way to pay online!

Return home.

Copyright ©2022 Inner Drive Technology. Purveyors of fine, hand-crafted computer software. Page printed 2022-01-21T19:49:05 UTC.